Time;durP1;ratioP1;P1;durP2;ratioP2;P2;SDS_P1;SDS_P2;PMS_P1;PMS_P2;Temp;Humidity;BMP_temperature;BMP_pressure;BME280_temperature;BME280_humidity;BME280_pressure;Samples;Min_cycle;Max_cycle;Signal;HPM_P1;HPM_P2
2021/11/06 00:01:34;;;;;;;10.60;3.40;;;;;;;9.04;86.27;102402.72;4994242;28;20199;-80
2021/11/06 00:04:00;;;;;;;9.07;3.40;;;;;;;9.02;85.68;102401.75;5010641;28;20191;-81
2021/11/06 00:06:25;;;;;;;10.40;3.17;;;;;;;9.00;85.44;102400.81;5010300;28;20200;-79
2021/11/06 00:08:50;;;;;;;9.60;3.30;;;;;;;8.98;85.63;102412.63;5011801;28;20273;-79
2021/11/06 00:11:16;;;;;;;9.23;3.37;;;;;;;8.98;86.36;102409.22;4993325;28;20223;-80
2021/11/06 00:13:41;;;;;;;5.73;3.00;;;;;;;8.97;86.07;102410.88;5010011;28;20195;-80
2021/11/06 00:16:06;;;;;;;7.90;2.93;;;;;;;8.99;86.14;102418.63;5009788;28;20569;-79
2021/11/06 00:18:32;;;;;;;7.77;3.00;;;;;;;9.00;85.81;102412.72;5011454;28;20241;-80
2021/11/06 00:20:57;;;;;;;8.17;2.93;;;;;;;8.98;86.08;102412.63;5010331;28;20187;-78
2021/11/06 00:23:22;;;;;;;10.00;3.30;;;;;;;8.94;86.35;102413.25;5011329;28;20206;-79
2021/11/06 00:25:48;;;;;;;11.40;3.33;;;;;;;8.91;86.43;102407.13;4993703;28;20780;-80
2021/11/06 00:28:13;;;;;;;5.33;2.97;;;;;;;8.88;86.15;102409.53;5009811;28;20668;-80
2021/11/06 00:30:39;;;;;;;6.80;2.80;;;;;;;8.88;86.38;102412.97;4996927;28;20190;-81
2021/11/06 00:33:05;;;;;;;11.13;2.73;;;;;;;8.89;85.79;102412.16;5013334;28;20215;-81
2021/11/06 00:35:30;;;;;;;10.57;3.03;;;;;;;8.89;86.15;102413.84;5013568;28;20262;-77
2021/11/06 00:37:55;;;;;;;7.63;2.63;;;;;;;8.88;86.04;102418.06;5013221;28;20623;-81
2021/11/06 00:40:21;;;;;;;9.20;2.73;;;;;;;8.87;85.93;102424.00;5014268;28;20203;-80
2021/11/06 00:42:46;;;;;;;10.67;2.77;;;;;;;8.89;86.12;102421.50;5013579;28;20206;-80
2021/11/06 00:45:12;;;;;;;6.10;3.00;;;;;;;8.88;85.40;102414.63;5013828;28;20628;-81
2021/11/06 00:47:39;;;;;;;8.43;2.97;;;;;;;8.87;85.79;102425.66;4996733;28;20198;-79
2021/11/06 00:50:07;;;;;;;7.73;2.93;;;;;;;8.86;85.43;102427.34;5012800;28;20191;-81
2021/11/06 00:52:33;;;;;;;8.40;2.60;;;;;;;8.88;85.87;102430.84;5002516;28;20211;-82
2021/11/06 00:54:59;;;;;;;8.80;2.50;;;;;;;8.89;85.54;102431.72;5015041;28;20185;-79
2021/11/06 00:57:24;;;;;;;6.87;2.73;;;;;;;8.89;85.76;102427.47;5012953;28;20199;-81
2021/11/06 00:59:50;;;;;;;6.27;2.43;;;;;;;8.90;85.28;102430.94;5014435;28;20668;-81
2021/11/06 01:02:15;;;;;;;7.93;2.90;;;;;;;8.89;85.29;102424.94;5013220;28;20211;-81
2021/11/06 01:04:42;;;;;;;7.43;3.00;;;;;;;8.88;85.37;102428.28;5013040;28;20637;-79
2021/11/06 01:07:07;;;;;;;10.10;2.97;;;;;;;8.89;85.60;102435.16;5013280;28;20557;-80
2021/11/06 01:09:33;;;;;;;8.90;2.67;;;;;;;8.88;85.05;102427.41;5012709;28;20176;-80
2021/11/06 01:11:58;;;;;;;8.27;3.17;;;;;;;8.89;85.09;102427.47;5012380;28;20306;-81
2021/11/06 01:14:23;;;;;;;8.37;2.30;;;;;;;8.90;85.19;102418.16;5012446;28;20227;-82
2021/11/06 01:16:49;;;;;;;8.30;2.53;;;;;;;8.88;85.18;102427.41;5012467;28;20195;-81
2021/11/06 01:19:14;;;;;;;5.70;2.20;;;;;;;8.88;85.59;102424.84;5012760;28;20663;-81
2021/11/06 01:21:40;;;;;;;7.07;2.30;;;;;;;8.88;85.06;102430.84;5012155;28;20246;-80
2021/11/06 01:24:06;;;;;;;5.43;2.43;;;;;;;8.88;85.57;102435.94;4995885;28;20288;-79
2021/11/06 01:26:31;;;;;;;11.33;3.40;;;;;;;8.87;85.18;102424.00;5013088;28;20188;-79
2021/11/06 01:28:57;;;;;;;6.30;2.33;;;;;;;8.87;85.08;102434.19;5012476;28;20194;-81
2021/11/06 01:31:22;;;;;;;9.30;2.57;;;;;;;8.83;85.95;102422.06;5012570;28;20220;-80
2021/11/06 01:33:47;;;;;;;8.70;2.80;;;;;;;8.85;85.33;102428.13;4992744;28;20195;-80
2021/11/06 01:36:13;;;;;;;8.87;2.83;;;;;;;8.86;85.23;102434.13;5009239;28;20187;-79
2021/11/06 01:38:39;;;;;;;6.10;2.50;;;;;;;8.83;85.50;102428.84;5003456;28;20198;-79
2021/11/06 01:41:05;;;;;;;7.10;2.50;;;;;;;8.83;85.40;102427.19;5013432;28;20266;-79
2021/11/06 01:43:30;;;;;;;5.50;1.93;;;;;;;8.81;85.19;102425.34;4996015;28;20200;-80
2021/11/06 01:46:02;;;;;;;6.63;2.43;;;;;;;8.79;86.03;102425.25;5012322;28;20188;-80
2021/11/06 01:48:28;;;;;;;6.43;2.30;;;;;;;8.80;85.94;102428.69;5013737;28;20187;-80
2021/11/06 01:50:54;;;;;;;6.57;2.57;;;;;;;8.80;85.62;102432.13;5012853;28;20201;-80
2021/11/06 01:53:20;;;;;;;9.53;2.40;;;;;;;8.81;85.60;102433.88;5011907;28;20222;-80
2021/11/06 01:55:48;;;;;;;6.80;2.50;;;;;;;8.77;85.91;102429.44;5012445;28;20199;-79
2021/11/06 01:58:13;;;;;;;4.37;2.27;;;;;;;8.78;85.51;102427.72;4996321;28;20310;-80
2021/11/06 02:00:39;;;;;;;7.30;2.90;;;;;;;8.77;85.58;102436.19;5013750;28;20211;-80
2021/11/06 02:03:04;;;;;;;8.57;3.17;;;;;;;8.76;85.39;102437.00;5013306;28;20573;-80
2021/11/06 02:05:30;;;;;;;9.67;2.50;;;;;;;8.76;85.58;102430.19;5011858;28;20279;-79
2021/11/06 02:07:55;;;;;;;9.03;2.80;;;;;;;8.74;85.65;102433.47;5011882;28;20380;-80
2021/11/06 02:10:20;;;;;;;6.97;2.40;;;;;;;8.74;85.02;102426.69;4995955;28;20207;-79
2021/11/06 02:12:47;;;;;;;7.53;2.40;;;;;;;8.73;85.50;102430.06;5013219;28;20341;-80
2021/11/06 02:15:15;;;;;;;8.23;2.40;;;;;;;8.72;85.82;102427.41;4995662;28;20290;-81
2021/11/06 02:17:45;;;;;;;5.63;2.17;;;;;;;8.73;85.91;102427.50;4978399;28;20346;-79
2021/11/06 02:20:11;;;;;;;7.33;2.60;;;;;;;8.70;85.46;102424.78;5042015;22;20234;-79
2021/11/06 02:22:37;;;;;;;7.70;2.40;;;;;;;8.71;85.15;102423.13;5034409;28;20215;-80
2021/11/06 02:25:04;;;;;;;7.30;2.53;;;;;;;8.68;85.31;102422.94;5035931;28;20178;-81
2021/11/06 02:27:29;;;;;;;9.17;2.40;;;;;;;8.67;85.43;102421.19;5016614;28;20281;-81
2021/11/06 02:29:55;;;;;;;6.87;2.93;;;;;;;8.62;86.32;102418.38;5017095;28;20230;-80
2021/11/06 02:32:20;;;;;;;9.47;2.97;;;;;;;8.61;85.67;102424.31;5032824;28;20267;-80
2021/11/06 02:34:46;;;;;;;11.10;2.47;;;;;;;8.63;85.41;102419.28;5033810;28;20199;-79
2021/11/06 02:37:11;;;;;;;8.23;2.67;;;;;;;8.61;85.79;102419.19;5034890;28;20277;-78
2021/11/06 02:39:36;;;;;;;5.93;2.60;;;;;;;8.60;85.44;102425.09;5035127;28;20686;-77
2021/11/06 02:42:06;;;;;;;13.50;3.63;;;;;;;8.59;85.69;102435.22;5018838;28;20201;-80
2021/11/06 02:44:32;;;;;;;7.63;2.90;;;;;;;8.60;85.58;102429.31;5035684;28;20198;-80
2021/11/06 02:46:58;;;;;;;7.87;3.30;;;;;;;8.59;85.98;102430.13;5035392;28;20195;-80
2021/11/06 02:49:23;;;;;;;8.80;3.37;;;;;;;8.56;85.47;102427.41;5034497;28;20545;-79
2021/11/06 02:51:49;;;;;;;7.47;3.30;;;;;;;8.55;85.47;102431.66;5033906;28;20202;-77
2021/11/06 02:54:15;;;;;;;11.40;4.20;;;;;;;8.53;86.22;102430.66;5034740;28;20202;-79
2021/11/06 02:56:40;;;;;;;6.57;3.60;;;;;;;8.52;86.65;102428.06;5019547;28;20195;-80
2021/11/06 02:59:06;;;;;;;12.10;4.03;;;;;;;8.55;86.60;102428.19;5035946;28;20202;-79
2021/11/06 03:01:31;;;;;;;7.47;4.00;;;;;;;8.49;86.13;102427.88;5037839;28;20550;-78
2021/11/06 03:03:57;;;;;;;8.63;4.00;;;;;;;8.52;86.43;102422.97;5017345;28;20560;-80
2021/11/06 03:06:22;;;;;;;9.97;4.00;;;;;;;8.49;85.97;102427.88;5035878;28;20190;-76
2021/11/06 03:08:47;;;;;;;8.77;3.43;;;;;;;8.46;85.86;102423.50;5036656;28;20206;-81
2021/11/06 03:11:13;;;;;;;8.30;3.73;;;;;;;8.49;86.22;102425.34;5038069;28;20268;-78
2021/11/06 03:13:41;;;;;;;8.60;3.83;;;;;;;8.45;86.43;102420.88;5037032;28;20609;-79
2021/11/06 03:16:08;;;;;;;8.60;4.37;;;;;;;8.44;85.99;102424.22;5039871;28;20217;-77
2021/11/06 03:18:34;;;;;;;8.83;4.70;;;;;;;8.48;86.55;102426.13;5042501;28;20218;-80
2021/11/06 03:20:59;;;;;;;6.93;3.70;;;;;;;8.46;85.91;102425.16;5041401;28;20218;-80
2021/11/06 03:23:27;;;;;;;10.00;4.60;;;;;;;8.46;86.26;102433.72;5041097;28;20197;-81
2021/11/06 03:25:54;;;;;;;9.57;4.53;;;;;;;8.47;86.67;102426.94;5048252;28;20191;-81
2021/11/06 03:28:20;;;;;;;7.23;4.03;;;;;;;8.49;86.33;102423.69;5045182;28;20186;-76
2021/11/06 03:30:45;;;;;;;5.73;3.47;;;;;;;8.51;86.98;102423.72;5041857;28;20291;-80
2021/11/06 03:33:10;;;;;;;10.77;4.37;;;;;;;8.50;86.58;102422.88;5041957;28;20218;-80
2021/11/06 03:35:36;;;;;;;7.63;4.20;;;;;;;8.49;86.39;102416.03;5039294;28;20206;-81
2021/11/06 03:38:01;;;;;;;6.73;4.50;;;;;;;8.49;86.08;102420.22;5041408;28;20248;-79
2021/11/06 03:40:27;;;;;;;8.70;5.03;;;;;;;8.51;87.30;102418.63;5042374;28;20218;-81
2021/11/06 03:42:52;;;;;;;9.73;5.43;;;;;;;8.50;86.60;102430.53;5041856;28;20187;-78
2021/11/06 03:45:17;;;;;;;11.37;4.87;;;;;;;8.51;85.76;102422.06;5040483;28;20218;-82
2021/11/06 03:47:43;;;;;;;7.60;5.20;;;;;;;8.53;86.77;102427.25;5040797;28;20186;-80
2021/11/06 03:50:09;;;;;;;8.20;5.23;;;;;;;8.52;86.68;102421.25;5039839;28;20305;-78
2021/11/06 03:52:35;;;;;;;10.30;5.50;;;;;;;8.52;86.60;102421.25;5037590;28;20233;-76
2021/11/06 03:55:02;;;;;;;8.73;5.20;;;;;;;8.51;85.88;102421.19;5047762;28;20185;-80
2021/11/06 03:57:27;;;;;;;9.47;5.37;;;;;;;8.50;86.50;102421.97;5038796;28;20182;-79
2021/11/06 03:59:52;;;;;;;14.00;5.27;;;;;;;8.50;85.94;102429.63;5016197;28;20261;-79
2021/11/06 04:02:18;;;;;;;10.30;5.07;;;;;;;8.49;86.33;102421.13;5033032;28;20190;-79
2021/11/06 04:04:44;;;;;;;9.50;5.30;;;;;;;8.44;86.35;102417.41;5032068;28;20217;-80
2021/11/06 04:07:09;;;;;;;8.87;4.93;;;;;;;8.45;86.51;102421.75;5036906;28;20278;-77
2021/11/06 04:09:34;;;;;;;8.23;5.10;;;;;;;8.42;86.16;102413.91;5036072;28;20222;-80
2021/11/06 04:12:00;;;;;;;6.33;4.30;;;;;;;8.40;86.47;102424.84;5023343;28;20218;-81
2021/11/06 04:14:25;;;;;;;10.03;5.27;;;;;;;8.40;86.52;102419.75;5042879;28;20220;-79
2021/11/06 04:16:51;;;;;;;9.00;4.97;;;;;;;8.40;86.50;102423.19;5039602;28;20191;-81
2021/11/06 04:19:16;;;;;;;9.30;4.60;;;;;;;8.42;86.63;102430.91;5035210;28;20226;-80
2021/11/06 04:21:41;;;;;;;7.43;4.87;;;;;;;8.39;86.48;102433.31;5016696;28;20240;-80
2021/11/06 04:24:07;;;;;;;8.67;4.47;;;;;;;8.38;86.04;102440.06;5034565;28;20179;-78
2021/11/06 04:26:33;;;;;;;10.30;5.17;;;;;;;8.38;87.07;102440.06;5033147;28;20828;-80
2021/11/06 04:28:58;;;;;;;8.73;5.07;;;;;;;8.35;86.10;102439.03;5034848;28;20194;-78
2021/11/06 04:31:23;;;;;;;11.20;5.20;;;;;;;8.36;85.76;102436.56;5036369;28;20214;-78
2021/11/06 04:33:49;;;;;;;9.40;4.67;;;;;;;8.34;86.63;102439.84;5037996;28;20248;-80
2021/11/06 04:36:14;;;;;;;10.80;5.93;;;;;;;8.34;86.76;102445.81;5035310;28;20214;-80
2021/11/06 04:38:40;;;;;;;9.40;5.20;;;;;;;8.35;86.40;102432.28;5037887;28;20671;-80
2021/11/06 04:41:05;;;;;;;7.40;5.63;;;;;;;8.33;86.52;102438.94;5020138;28;20924;-80
2021/11/06 04:43:31;;;;;;;11.33;5.93;;;;;;;8.36;86.24;102435.69;5035664;28;20276;-80
2021/11/06 04:45:56;;;;;;;8.23;5.20;;;;;;;8.36;86.61;102430.56;5033995;28;20558;-79
2021/11/06 04:48:21;;;;;;;11.97;6.07;;;;;;;8.33;87.66;102427.84;5034614;28;20194;-80
2021/11/06 04:50:46;;;;;;;7.23;5.50;;;;;;;8.31;87.22;102432.00;5035999;28;20209;-78
2021/11/06 04:53:12;;;;;;;13.47;6.37;;;;;;;8.29;87.52;102421.72;5038135;28;20200;-79
2021/11/06 04:55:37;;;;;;;10.30;5.70;;;;;;;8.30;87.72;102430.25;5036739;28;20194;-78
2021/11/06 04:58:03;;;;;;;8.67;5.60;;;;;;;8.29;87.14;102443.81;5038869;28;20198;-77
2021/11/06 05:00:29;;;;;;;9.87;5.87;;;;;;;8.25;87.48;102427.44;5038622;28;20207;-80
2021/11/06 05:02:54;;;;;;;8.73;5.60;;;;;;;8.21;87.41;102438.28;5038049;28;20191;-79
2021/11/06 05:05:20;;;;;;;10.73;6.30;;;;;;;8.22;86.75;102439.16;5036992;28;20190;-81
2021/11/06 05:07:45;;;;;;;8.60;6.63;;;;;;;8.18;87.09;102427.91;5038784;28;20221;-79
2021/11/06 05:10:11;;;;;;;10.00;6.27;;;;;;;8.20;87.24;102433.97;5028608;28;20211;-78
2021/11/06 05:12:36;;;;;;;9.77;6.20;;;;;;;8.20;87.21;102439.06;5018923;28;20215;-77
2021/11/06 05:15:04;;;;;;;9.63;5.60;;;;;;;8.21;88.05;102432.31;5019556;28;20768;-78
2021/11/06 05:17:29;;;;;;;8.23;6.20;;;;;;;8.22;87.66;102437.50;5021315;28;20241;-81
2021/11/06 05:19:57;;;;;;;6.70;5.83;;;;;;;8.23;86.95;102439.25;5020523;28;20218;-78
2021/11/06 05:22:22;;;;;;;11.57;6.57;;;;;;;8.23;87.10;102446.03;5019947;28;20202;-78
2021/11/06 05:24:47;;;;;;;8.70;6.40;;;;;;;8.24;87.91;102453.75;5020740;28;20183;-81
2021/11/06 05:27:13;;;;;;;12.37;7.00;;;;;;;8.24;87.98;102450.34;5021800;28;20210;-80
2021/11/06 05:29:38;;;;;;;9.87;7.23;;;;;;;8.22;87.96;102449.38;5004678;28;20237;-79
2021/11/06 05:32:04;;;;;;;11.03;6.97;;;;;;;8.24;88.05;102448.66;5023384;28;20211;-78
2021/11/06 05:34:29;;;;;;;11.20;7.50;;;;;;;8.22;87.91;102439.16;5018717;28;20234;-79
2021/11/06 05:36:54;;;;;;;10.70;7.80;;;;;;;8.23;88.05;102448.56;5001497;28;20192;-80
2021/11/06 05:39:20;;;;;;;10.33;7.60;;;;;;;8.23;87.45;102443.47;5018234;28;20211;-80
2021/11/06 05:41:45;;;;;;;9.80;7.90;;;;;;;8.21;87.55;102448.47;5017796;28;20194;-78
2021/11/06 05:44:10;;;;;;;11.90;8.90;;;;;;;8.22;87.75;102440.06;5023603;28;20198;-81
2021/11/06 05:46:36;;;;;;;11.80;8.20;;;;;;;8.22;87.69;102440.06;5029950;28;20198;-79
2021/11/06 05:49:01;;;;;;;11.70;8.23;;;;;;;8.26;87.27;102441.09;5041426;28;20193;-80
2021/11/06 05:51:27;;;;;;;14.57;8.53;;;;;;;8.26;87.76;102444.53;5040095;28;20206;-78
2021/11/06 05:53:52;;;;;;;15.77;9.17;;;;;;;8.27;87.69;102440.28;5041403;28;20258;-77
2021/11/06 05:56:19;;;;;;;13.13;9.47;;;;;;;8.29;88.10;102443.81;5041983;28;20285;-80
2021/11/06 05:58:45;;;;;;;12.53;9.17;;;;;;;8.30;88.30;102443.88;5026710;28;20206;-81
2021/11/06 06:01:10;;;;;;;13.50;9.40;;;;;;;8.30;88.11;102445.56;5044226;28;21003;-80
2021/11/06 06:03:36;;;;;;;12.23;9.37;;;;;;;8.32;87.52;102442.31;5043657;28;20186;-80
2021/11/06 06:06:01;;;;;;;13.40;9.83;;;;;;;8.30;87.66;102443.88;5045915;28;20186;-81
2021/11/06 06:08:27;;;;;;;13.33;10.13;;;;;;;8.28;87.43;102447.16;5044590;28;20190;-80
2021/11/06 06:10:52;;;;;;;16.43;10.93;;;;;;;8.28;87.53;102444.59;5042433;28;20217;-79
2021/11/06 06:13:18;;;;;;;14.87;11.10;;;;;;;8.27;87.48;102445.41;5039006;28;20221;-79
2021/11/06 06:15:43;;;;;;;19.10;12.20;;;;;;;8.26;87.44;102449.63;5038153;28;20198;-78
2021/11/06 06:18:09;;;;;;;15.07;10.90;;;;;;;8.20;88.17;102449.28;5035028;28;20561;-79
2021/11/06 06:20:34;;;;;;;17.20;12.43;;;;;;;8.20;87.75;102454.38;5036469;28;20218;-79
2021/11/06 06:23:00;;;;;;;20.07;12.53;;;;;;;8.20;88.24;102454.38;5039005;28;20183;-77
2021/11/06 06:25:25;;;;;;;16.83;12.63;;;;;;;8.23;88.17;102459.66;5039238;28;20194;-79
2021/11/06 06:27:50;;;;;;;17.53;12.77;;;;;;;8.24;87.90;102456.31;5035230;28;20190;-78
2021/11/06 06:30:17;;;;;;;18.33;13.10;;;;;;;8.28;87.54;102463.34;5034981;28;20313;-81
2021/11/06 06:32:43;;;;;;;17.17;13.77;;;;;;;8.27;88.55;102460.72;5038744;28;20576;-78
2021/11/06 06:35:09;;;;;;;18.03;13.50;;;;;;;8.28;87.96;102463.34;5040879;28;20205;-81
2021/11/06 06:37:35;;;;;;;19.63;13.03;;;;;;;8.28;87.88;102470.09;5039401;28;20674;-78
2021/11/06 06:40:01;;;;;;;17.80;14.00;;;;;;;8.26;87.99;102467.50;5037225;28;20206;-80
2021/11/06 06:42:26;;;;;;;23.83;14.30;;;;;;;8.26;87.77;102470.06;5038433;28;20195;-81
2021/11/06 06:44:52;;;;;;;18.87;12.60;;;;;;;8.28;87.08;102467.56;5036954;28;20298;-79
2021/11/06 06:47:18;;;;;;;18.87;12.63;;;;;;;8.28;87.74;102471.00;5034037;28;20187;-78
2021/11/06 06:49:46;;;;;;;16.63;13.53;;;;;;;8.33;87.58;102472.13;5031526;28;20222;-80
2021/11/06 06:52:12;;;;;;;18.07;13.77;;;;;;;8.34;87.09;102466.22;5019256;28;20218;-82
2021/11/06 06:54:37;;;;;;;19.80;14.00;;;;;;;8.38;87.50;102472.41;5038553;28;20186;-81
2021/11/06 06:57:03;;;;;;;18.93;14.50;;;;;;;8.38;86.97;102478.34;5037651;28;20205;-79
2021/11/06 06:59:32;;;;;;;17.70;12.87;;;;;;;8.41;87.11;102481.09;5020964;28;20206;-77
2021/11/06 07:01:58;;;;;;;16.60;13.50;;;;;;;8.44;86.89;102481.22;5020828;28;20191;-79
2021/11/06 07:04:23;;;;;;;18.13;14.23;;;;;;;8.49;86.91;102489.16;5040093;28;20190;-80
2021/11/06 07:06:51;;;;;;;19.40;13.73;;;;;;;8.53;86.41;102486.84;5022639;28;20190;-80
2021/11/06 07:09:17;;;;;;;19.67;13.27;;;;;;;8.56;86.99;102486.13;5040008;28;20924;-81
2021/11/06 07:11:42;;;;;;;19.10;14.90;;;;;;;8.57;86.81;102473.44;5023367;28;20206;-81
2021/11/06 07:14:08;;;;;;;23.07;15.37;;;;;;;8.58;86.39;102480.31;5041602;28;20225;-80
2021/11/06 07:16:33;;;;;;;22.70;14.73;;;;;;;8.61;86.93;102488.13;5039702;28;20548;-78
2021/11/06 07:18:58;;;;;;;18.37;14.37;;;;;;;8.64;86.86;102500.19;5040083;28;20213;-80
2021/11/06 07:21:24;;;;;;;24.70;15.23;;;;;;;8.67;87.09;102492.69;5038480;28;20187;-81
2021/11/06 07:23:49;;;;;;;20.13;14.80;;;;;;;8.69;86.70;102506.41;5040444;28;20182;-79
2021/11/06 07:26:14;;;;;;;19.77;14.03;;;;;;;8.68;86.17;102497.88;5048768;28;20187;-80
2021/11/06 07:28:40;;;;;;;18.57;15.70;;;;;;;8.69;85.92;102499.63;5043729;28;20226;-78
2021/11/06 07:31:05;;;;;;;21.00;15.23;;;;;;;8.88;87.08;102493.81;5035390;28;20222;-80
2021/11/06 07:33:31;;;;;;;24.50;15.37;;;;;;;8.94;86.16;102494.16;5031573;28;20225;-75
2021/11/06 07:35:56;;;;;;;22.07;14.33;;;;;;;8.97;85.78;102492.63;5031074;28;20198;-77
2021/11/06 07:38:21;;;;;;;25.60;15.50;;;;;;;9.03;85.71;102499.75;5028997;28;20174;-76
2021/11/06 07:40:47;;;;;;;23.33;16.03;;;;;;;8.94;85.54;102491.59;5032470;28;20222;-78
2021/11/06 07:43:12;;;;;;;21.53;16.37;;;;;;;8.87;85.87;102495.50;5033883;28;20563;-78
2021/11/06 07:45:38;;;;;;;27.40;16.90;;;;;;;8.85;85.39;102491.13;5036450;28;20675;-77
2021/11/06 07:48:04;;;;;;;25.80;17.17;;;;;;;8.87;85.64;102498.06;5037705;28;20314;-80
2021/11/06 07:50:30;;;;;;;27.00;17.63;;;;;;;8.86;85.44;102491.19;5037740;28;20702;-81
2021/11/06 07:52:56;;;;;;;23.53;17.50;;;;;;;8.86;85.50;102487.75;5036401;28;20201;-81
2021/11/06 07:55:22;;;;;;;25.07;17.30;;;;;;;8.90;85.46;102487.97;5037585;28;20195;-80
2021/11/06 07:57:48;;;;;;;29.47;18.60;;;;;;;8.89;85.66;102490.47;5035984;28;20186;-80
2021/11/06 08:00:17;;;;;;;29.50;19.23;;;;;;;8.93;85.61;102492.38;5019383;28;20210;-80
2021/11/06 08:02:44;;;;;;;29.50;20.37;;;;;;;8.93;85.94;102488.16;5034954;28;20186;-81
2021/11/06 08:05:10;;;;;;;28.20;19.60;;;;;;;9.00;86.20;102486.78;5034334;28;20202;-80
2021/11/06 08:07:36;;;;;;;27.03;20.00;;;;;;;9.06;85.42;102484.53;5037833;28;20186;-81
2021/11/06 08:10:04;;;;;;;24.97;19.90;;;;;;;9.11;85.75;102491.66;5036736;28;20242;-81
2021/11/06 08:12:30;;;;;;;27.53;20.77;;;;;;;9.13;85.16;102492.59;5020062;28;20222;-78
2021/11/06 08:14:55;;;;;;;34.23;19.93;;;;;;;9.19;84.99;102485.28;5036983;28;20191;-81
2021/11/06 08:17:21;;;;;;;25.83;20.87;;;;;;;9.18;85.11;102487.75;5038142;28;20190;-79
2021/11/06 08:19:46;;;;;;;28.57;20.03;;;;;;;9.17;85.29;102489.41;5021778;28;20214;-81
2021/11/06 08:22:12;;;;;;;31.83;21.03;;;;;;;9.19;85.30;102481.84;5038245;28;20213;-80
2021/11/06 08:24:38;;;;;;;31.80;20.67;;;;;;;9.21;85.51;102477.69;5036374;28;20178;-81
2021/11/06 08:27:04;;;;;;;27.83;20.20;;;;;;;9.17;84.85;102483.44;5036473;28;20198;-79
2021/11/06 08:29:29;;;;;;;32.00;21.93;;;;;;;9.14;85.33;102479.06;5020266;28;20209;-81
2021/11/06 08:31:58;;;;;;;28.13;22.07;;;;;;;9.22;85.56;102475.19;5037157;28;20749;-78
2021/11/06 08:34:24;;;;;;;32.57;22.17;;;;;;;9.19;85.67;102475.06;5013286;28;20187;-79
2021/11/06 08:36:50;;;;;;;32.10;22.20;;;;;;;9.26;84.99;102458.34;5028181;28;20596;-80
2021/11/06 08:39:18;;;;;;;29.77;23.07;;;;;;;9.27;85.04;102463.50;5028176;28;20210;-77
2021/11/06 08:41:44;;;;;;;26.60;21.37;;;;;;;9.30;84.84;102465.38;5012240;28;20268;-77
2021/11/06 08:44:09;;;;;;;28.80;22.00;;;;;;;9.29;85.34;102461.94;5028240;28;20273;-76
2021/11/06 08:46:35;;;;;;;30.37;21.43;;;;;;;9.30;84.50;102456.00;5029937;28;20189;-78
2021/11/06 08:49:00;;;;;;;31.10;22.40;;;;;;;9.32;84.54;102462.09;5028714;28;20229;-77
2021/11/06 08:51:25;;;;;;;35.63;22.60;;;;;;;9.36;85.04;102463.97;5013747;28;20198;-76
2021/11/06 08:53:51;;;;;;;27.60;22.10;;;;;;;9.38;84.81;102464.06;5014860;28;20191;-77
2021/11/06 08:56:17;;;;;;;33.77;23.47;;;;;;;9.37;84.51;102472.53;5033040;28;20281;-77
2021/11/06 08:58:43;;;;;;;33.30;23.50;;;;;;;9.40;84.75;102475.25;5015373;28;20195;-76
2021/11/06 09:01:08;;;;;;;32.43;24.20;;;;;;;9.36;84.90;102478.47;5013402;28;20199;-78
2021/11/06 09:03:34;;;;;;;31.57;21.93;;;;;;;9.36;84.65;102478.47;5012194;28;20640;-75
2021/11/06 09:05:59;;;;;;;29.47;22.93;;;;;;;9.38;85.24;102470.06;5013079;28;20199;-82
2021/11/06 09:08:31;;;;;;;29.43;23.27;;;;;;;9.39;84.56;102487.16;5020827;28;20215;-79
2021/11/06 09:11:02;;;;;;;32.83;24.63;;;;;;;9.44;84.76;102472.91;5004711;28;20215;-79
2021/11/06 09:13:27;;;;;;;32.47;23.37;;;;;;;9.48;84.96;102479.06;5042056;28;20230;-80
2021/11/06 09:15:53;;;;;;;30.13;24.20;;;;;;;9.46;85.00;102479.00;5042454;28;20183;-78
2021/11/06 09:18:18;;;;;;;32.57;24.63;;;;;;;9.49;84.66;102480.84;5044106;28;20205;-80
2021/11/06 09:20:44;;;;;;;34.43;25.30;;;;;;;9.48;84.69;102479.94;5041659;28;20686;-78
2021/11/06 09:23:09;;;;;;;31.43;24.53;;;;;;;9.60;83.99;102479.69;5038384;28;20209;-82
2021/11/06 09:25:35;;;;;;;29.33;24.37;;;;;;;9.65;83.69;102493.56;5037294;28;20188;-81
2021/11/06 09:28:00;;;;;;;30.03;23.60;;;;;;;9.64;83.52;102482.44;5038445;28;20187;-81
2021/11/06 09:30:26;;;;;;;30.73;24.00;;;;;;;9.72;83.89;102487.97;5035746;28;20252;-79
2021/11/06 09:32:51;;;;;;;34.50;24.00;;;;;;;9.70;83.26;102481.88;5035557;28;20217;-80
2021/11/06 09:35:17;;;;;;;31.27;23.93;;;;;;;9.82;83.32;102475.66;5037998;28;20205;-79
2021/11/06 09:37:42;;;;;;;29.63;22.70;;;;;;;9.79;83.21;102470.44;5036209;28;20226;-77
2021/11/06 09:40:09;;;;;;;29.30;23.97;;;;;;;9.83;83.08;102477.44;5042256;28;20202;-81
2021/11/06 09:42:39;;;;;;;29.60;23.87;;;;;;;9.81;83.45;102473.06;5040193;28;20221;-78
2021/11/06 09:45:06;;;;;;;30.43;23.97;;;;;;;9.86;82.75;102477.56;5040761;28;20186;-80
2021/11/06 09:47:31;;;;;;;30.00;22.60;;;;;;;9.92;83.08;102477.91;5039307;28;20186;-80
2021/11/06 09:49:57;;;;;;;28.80;23.10;;;;;;;9.84;82.88;102484.31;5041151;28;20217;-80
2021/11/06 09:52:22;;;;;;;30.07;23.50;;;;;;;9.90;82.89;102478.63;5039125;28;20217;-78
2021/11/06 09:54:48;;;;;;;26.17;22.10;;;;;;;10.02;82.77;102481.75;5019077;28;20232;-79
2021/11/06 09:57:13;;;;;;;32.53;24.20;;;;;;;10.06;82.43;102478.56;5038334;28;20206;-78
2021/11/06 09:59:39;;;;;;;27.17;22.27;;;;;;;10.07;82.45;102470.97;5039989;28;20574;-82
2021/11/06 10:02:05;;;;;;;30.37;23.43;;;;;;;10.21;81.48;102471.59;5040004;28;20569;-77
2021/11/06 10:04:32;;;;;;;29.93;21.17;;;;;;;10.23;81.79;102468.31;5026872;28;20223;-80
2021/11/06 10:06:59;;;;;;;27.20;22.17;;;;;;;10.32;81.36;102461.06;5033288;28;20717;-78
2021/11/06 10:09:25;;;;;;;28.43;21.97;;;;;;;10.36;81.27;102455.28;5037314;28;20203;-81
2021/11/06 10:11:53;;;;;;;27.60;21.73;;;;;;;10.26;81.77;102459.91;5041286;28;20215;-79
2021/11/06 10:14:25;;;;;;;25.80;20.00;;;;;;;10.35;81.45;102468.00;5040085;28;20243;-80
2021/11/06 10:16:57;;;;;;;26.10;21.33;;;;;;;10.33;81.70;102459.38;5039397;28;20183;-81
2021/11/06 10:19:36;;;;;;;27.47;22.13;;;;;;;10.45;81.17;102460.81;5040051;28;20306;-81
2021/11/06 10:22:10;;;;;;;23.50;20.93;;;;;;;10.39;81.27;102458.00;5039776;28;20179;-78
2021/11/06 10:24:51;;;;;;;27.97;22.17;;;;;;;10.70;80.23;102452.56;5040518;28;20984;-79
2021/11/06 10:27:19;;;;;;;28.07;20.17;;;;;;;10.70;80.21;102450.00;5039722;28;20542;-80
2021/11/06 10:30:10;;;;;;;27.47;20.37;;;;;;;10.88;79.74;102450.81;5038601;28;20225;-82
2021/11/06 10:32:37;;;;;;;27.37;20.97;;;;;;;10.87;80.35;102446.50;5039019;28;20191;-81
2021/11/06 10:35:25;;;;;;;28.57;21.27;;;;;;;10.67;80.49;102437.94;5039180;28;20839;-80
2021/11/06 10:38:18;;;;;;;26.73;21.07;;;;;;;10.68;80.44;102436.22;5039659;28;20174;-83
2021/11/06 10:40:48;;;;;;;25.63;21.37;;;;;;;10.58;80.79;102428.94;5037209;28;20214;-82
2021/11/06 10:43:17;;;;;;;30.07;21.60;;;;;;;10.53;80.73;102423.63;5040462;28;20182;-78
2021/11/06 10:45:45;;;;;;;25.80;21.40;;;;;;;10.55;80.69;102426.28;5040588;28;20174;-82
2021/11/06 10:48:15;;;;;;;28.60;22.47;;;;;;;10.50;81.55;102417.50;5041154;28;20183;-80
2021/11/06 10:50:55;;;;;;;27.43;24.03;;;;;;;10.39;80.89;102422.16;5020532;28;20557;-79
2021/11/06 10:53:48;;;;;;;28.20;23.27;;;;;;;10.38;81.61;102419.50;5019321;28;20278;-82
2021/11/06 10:56:13;;;;;;;29.67;21.97;;;;;;;10.47;81.84;102417.38;5020274;28;20687;-81
2021/11/06 10:58:41;;;;;;;27.73;22.53;;;;;;;10.45;81.95;102416.41;5018798;28;20171;-81
2021/11/06 11:01:09;;;;;;;28.13;21.40;;;;;;;10.42;81.87;102416.28;5019211;28;20214;-80
2021/11/06 11:03:43;;;;;;;29.13;22.50;;;;;;;10.38;81.38;102414.38;5027447;28;20184;-82
2021/11/06 11:06:25;;;;;;;28.73;22.57;;;;;;;10.46;81.64;102416.47;5022163;28;20183;-81
2021/11/06 11:08:53;;;;;;;26.17;22.63;;;;;;;10.46;81.87;102413.91;5018974;28;20947;-81
2021/11/06 11:11:21;;;;;;;31.00;22.57;;;;;;;10.40;81.92;102405.97;5002334;28;20234;-82
2021/11/06 11:13:48;;;;;;;27.20;22.33;;;;;;;10.44;81.86;102409.53;5017203;28;20195;-80
2021/11/06 11:16:17;;;;;;;30.50;23.53;;;;;;;10.40;82.03;102405.97;5029954;28;20273;-77
2021/11/06 11:18:50;;;;;;;28.43;22.20;;;;;;;10.34;82.05;102410.81;5019023;28;20202;-78
2021/11/06 11:21:26;;;;;;;31.37;23.00;;;;;;;10.29;82.24;102401.16;5018010;28;20297;-82